sensor_id;sensor_type;location;lat;lon;timestamp;P1;durP1;ratioP1;P2;durP2;ratioP2
67896;SDS011;54698;48.428;9.964;2022-08-30T00:01:09;18.83;;;9.27;;
67896;SDS011;54698;48.428;9.964;2022-08-30T00:03:37;14.88;;;9.05;;
67896;SDS011;54698;48.428;9.964;2022-08-30T00:06:08;16.63;;;9.23;;
67896;SDS011;54698;48.428;9.964;2022-08-30T00:08:35;13.65;;;8.45;;
67896;SDS011;54698;48.428;9.964;2022-08-30T00:11:03;13.60;;;8.75;;
67896;SDS011;54698;48.428;9.964;2022-08-30T00:13:30;14.35;;;7.70;;
67896;SDS011;54698;48.428;9.964;2022-08-30T00:15:56;12.57;;;7.55;;
67896;SDS011;54698;48.428;9.964;2022-08-30T00:18:22;13.55;;;8.75;;
67896;SDS011;54698;48.428;9.964;2022-08-30T00:20:49;13.73;;;8.93;;
67896;SDS011;54698;48.428;9.964;2022-08-30T00:23:16;14.23;;;9.30;;
67896;SDS011;54698;48.428;9.964;2022-08-30T00:25:43;11.73;;;7.80;;
67896;SDS011;54698;48.428;9.964;2022-08-30T00:28:09;16.25;;;8.80;;
67896;SDS011;54698;48.428;9.964;2022-08-30T00:30:36;17.45;;;9.80;;
67896;SDS011;54698;48.428;9.964;2022-08-30T00:33:03;16.15;;;10.15;;
67896;SDS011;54698;48.428;9.964;2022-08-30T00:35:29;16.83;;;9.68;;
67896;SDS011;54698;48.428;9.964;2022-08-30T00:37:55;14.23;;;8.30;;
67896;SDS011;54698;48.428;9.964;2022-08-30T00:40:21;14.02;;;8.65;;
67896;SDS011;54698;48.428;9.964;2022-08-30T00:42:49;12.35;;;7.57;;
67896;SDS011;54698;48.428;9.964;2022-08-30T00:45:16;14.90;;;8.00;;
67896;SDS011;54698;48.428;9.964;2022-08-30T00:47:46;15.60;;;8.05;;
67896;SDS011;54698;48.428;9.964;2022-08-30T00:50:13;12.40;;;7.57;;
67896;SDS011;54698;48.428;9.964;2022-08-30T00:52:42;19.02;;;10.27;;
67896;SDS011;54698;48.428;9.964;2022-08-30T00:55:11;18.20;;;9.52;;
67896;SDS011;54698;48.428;9.964;2022-08-30T00:57:38;15.20;;;9.23;;
67896;SDS011;54698;48.428;9.964;2022-08-30T01:00:08;20.30;;;9.75;;
67896;SDS011;54698;48.428;9.964;2022-08-30T01:02:35;15.85;;;9.70;;
67896;SDS011;54698;48.428;9.964;2022-08-30T01:05:02;16.15;;;8.77;;
67896;SDS011;54698;48.428;9.964;2022-08-30T01:07:33;16.15;;;9.40;;
67896;SDS011;54698;48.428;9.964;2022-08-30T01:09:58;16.52;;;9.27;;
67896;SDS011;54698;48.428;9.964;2022-08-30T01:12:25;14.18;;;9.52;;
67896;SDS011;54698;48.428;9.964;2022-08-30T01:14:52;15.75;;;9.32;;
67896;SDS011;54698;48.428;9.964;2022-08-30T01:17:19;15.35;;;9.98;;
67896;SDS011;54698;48.428;9.964;2022-08-30T01:19:46;18.13;;;10.13;;
67896;SDS011;54698;48.428;9.964;2022-08-30T01:22:20;20.00;;;9.23;;
67896;SDS011;54698;48.428;9.964;2022-08-30T01:24:54;14.07;;;8.82;;
67896;SDS011;54698;48.428;9.964;2022-08-30T01:27:24;15.07;;;9.27;;
67896;SDS011;54698;48.428;9.964;2022-08-30T01:29:51;18.38;;;8.50;;
67896;SDS011;54698;48.428;9.964;2022-08-30T01:32:18;16.85;;;9.80;;
67896;SDS011;54698;48.428;9.964;2022-08-30T01:34:46;17.23;;;10.55;;
67896;SDS011;54698;48.428;9.964;2022-08-30T01:37:13;16.10;;;9.48;;
67896;SDS011;54698;48.428;9.964;2022-08-30T01:39:39;18.20;;;11.80;;
67896;SDS011;54698;48.428;9.964;2022-08-30T01:42:07;14.13;;;9.10;;
67896;SDS011;54698;48.428;9.964;2022-08-30T01:44:32;17.10;;;9.75;;
67896;SDS011;54698;48.428;9.964;2022-08-30T01:46:58;17.30;;;9.70;;
67896;SDS011;54698;48.428;9.964;2022-08-30T01:49:24;18.30;;;10.10;;
67896;SDS011;54698;48.428;9.964;2022-08-30T01:51:50;14.23;;;8.75;;
67896;SDS011;54698;48.428;9.964;2022-08-30T01:54:16;18.63;;;11.35;;
67896;SDS011;54698;48.428;9.964;2022-08-30T01:56:42;20.05;;;10.10;;
67896;SDS011;54698;48.428;9.964;2022-08-30T01:59:09;18.38;;;10.23;;
67896;SDS011;54698;48.428;9.964;2022-08-30T02:01:35;17.10;;;10.05;;
67896;SDS011;54698;48.428;9.964;2022-08-30T02:04:01;15.45;;;9.13;;
67896;SDS011;54698;48.428;9.964;2022-08-30T02:06:28;21.77;;;9.55;;
67896;SDS011;54698;48.428;9.964;2022-08-30T02:08:54;16.48;;;9.35;;
67896;SDS011;54698;48.428;9.964;2022-08-30T02:11:20;17.05;;;9.45;;
67896;SDS011;54698;48.428;9.964;2022-08-30T02:13:46;23.15;;;10.68;;
67896;SDS011;54698;48.428;9.964;2022-08-30T02:16:14;14.23;;;10.10;;
67896;SDS011;54698;48.428;9.964;2022-08-30T02:18:44;16.55;;;10.55;;
67896;SDS011;54698;48.428;9.964;2022-08-30T02:21:10;14.88;;;9.77;;
67896;SDS011;54698;48.428;9.964;2022-08-30T02:23:37;14.13;;;8.52;;
67896;SDS011;54698;48.428;9.964;2022-08-30T02:26:03;17.40;;;9.23;;
67896;SDS011;54698;48.428;9.964;2022-08-30T02:28:29;14.68;;;8.93;;
67896;SDS011;54698;48.428;9.964;2022-08-30T02:30:55;14.90;;;8.98;;
67896;SDS011;54698;48.428;9.964;2022-08-30T02:33:22;15.98;;;9.45;;
67896;SDS011;54698;48.428;9.964;2022-08-30T02:35:48;14.27;;;8.80;;
67896;SDS011;54698;48.428;9.964;2022-08-30T02:38:14;13.32;;;8.60;;
67896;SDS011;54698;48.428;9.964;2022-08-30T02:40:40;15.32;;;9.18;;
67896;SDS011;54698;48.428;9.964;2022-08-30T02:43:06;14.75;;;8.52;;
67896;SDS011;54698;48.428;9.964;2022-08-30T02:45:32;17.77;;;10.77;;
67896;SDS011;54698;48.428;9.964;2022-08-30T02:47:58;18.55;;;9.60;;
67896;SDS011;54698;48.428;9.964;2022-08-30T02:50:25;13.57;;;9.32;;
67896;SDS011;54698;48.428;9.964;2022-08-30T02:52:51;16.23;;;9.20;;
67896;SDS011;54698;48.428;9.964;2022-08-30T02:55:17;19.25;;;10.65;;
67896;SDS011;54698;48.428;9.964;2022-08-30T02:57:43;17.63;;;9.48;;
67896;SDS011;54698;48.428;9.964;2022-08-30T03:00:10;12.70;;;9.38;;
67896;SDS011;54698;48.428;9.964;2022-08-30T03:02:40;15.23;;;10.48;;
67896;SDS011;54698;48.428;9.964;2022-08-30T03:05:06;17.90;;;9.52;;
67896;SDS011;54698;48.428;9.964;2022-08-30T03:07:34;15.45;;;10.15;;
67896;SDS011;54698;48.428;9.964;2022-08-30T03:10:00;14.77;;;9.05;;
67896;SDS011;54698;48.428;9.964;2022-08-30T03:12:26;18.92;;;9.80;;
67896;SDS011;54698;48.428;9.964;2022-08-30T03:14:52;15.40;;;9.75;;
67896;SDS011;54698;48.428;9.964;2022-08-30T03:17:18;14.60;;;9.18;;
67896;SDS011;54698;48.428;9.964;2022-08-30T03:19:44;16.65;;;10.80;;
67896;SDS011;54698;48.428;9.964;2022-08-30T03:22:10;16.30;;;9.90;;
67896;SDS011;54698;48.428;9.964;2022-08-30T03:24:37;15.10;;;9.13;;
67896;SDS011;54698;48.428;9.964;2022-08-30T03:27:03;14.85;;;9.23;;
67896;SDS011;54698;48.428;9.964;2022-08-30T03:29:29;16.98;;;10.70;;
67896;SDS011;54698;48.428;9.964;2022-08-30T03:31:55;19.45;;;10.23;;
67896;SDS011;54698;48.428;9.964;2022-08-30T03:34:21;16.00;;;9.32;;
67896;SDS011;54698;48.428;9.964;2022-08-30T03:36:49;15.30;;;9.38;;
67896;SDS011;54698;48.428;9.964;2022-08-30T03:39:16;16.17;;;9.48;;
67896;SDS011;54698;48.428;9.964;2022-08-30T03:41:45;19.50;;;10.93;;
67896;SDS011;54698;48.428;9.964;2022-08-30T03:44:11;17.35;;;10.48;;
67896;SDS011;54698;48.428;9.964;2022-08-30T03:46:37;18.95;;;9.68;;
67896;SDS011;54698;48.428;9.964;2022-08-30T03:49:03;17.75;;;9.48;;
67896;SDS011;54698;48.428;9.964;2022-08-30T03:51:29;15.95;;;9.52;;
67896;SDS011;54698;48.428;9.964;2022-08-30T03:53:54;15.65;;;8.95;;
67896;SDS011;54698;48.428;9.964;2022-08-30T03:56:20;15.77;;;9.40;;
67896;SDS011;54698;48.428;9.964;2022-08-30T03:58:47;18.10;;;10.82;;
67896;SDS011;54698;48.428;9.964;2022-08-30T04:01:13;18.40;;;10.35;;
67896;SDS011;54698;48.428;9.964;2022-08-30T04:03:39;17.88;;;9.82;;
67896;SDS011;54698;48.428;9.964;2022-08-30T04:06:05;18.25;;;9.98;;
67896;SDS011;54698;48.428;9.964;2022-08-30T04:08:31;15.05;;;9.10;;
67896;SDS011;54698;48.428;9.964;2022-08-30T04:10:57;12.90;;;8.38;;
67896;SDS011;54698;48.428;9.964;2022-08-30T04:13:23;15.15;;;9.00;;
67896;SDS011;54698;48.428;9.964;2022-08-30T04:15:50;15.73;;;8.82;;
67896;SDS011;54698;48.428;9.964;2022-08-30T04:18:16;16.23;;;10.00;;
67896;SDS011;54698;48.428;9.964;2022-08-30T04:20:42;16.67;;;9.43;;
67896;SDS011;54698;48.428;9.964;2022-08-30T04:23:08;15.88;;;10.70;;
67896;SDS011;54698;48.428;9.964;2022-08-30T04:25:35;19.42;;;9.55;;
67896;SDS011;54698;48.428;9.964;2022-08-30T04:28:03;16.15;;;8.88;;
67896;SDS011;54698;48.428;9.964;2022-08-30T04:30:29;17.33;;;9.40;;
67896;SDS011;54698;48.428;9.964;2022-08-30T04:32:57;16.33;;;9.07;;
67896;SDS011;54698;48.428;9.964;2022-08-30T04:35:23;16.38;;;10.50;;
67896;SDS011;54698;48.428;9.964;2022-08-30T04:37:49;16.10;;;10.27;;
67896;SDS011;54698;48.428;9.964;2022-08-30T04:40:15;17.15;;;10.45;;
67896;SDS011;54698;48.428;9.964;2022-08-30T04:42:41;17.45;;;10.35;;
67896;SDS011;54698;48.428;9.964;2022-08-30T04:45:09;14.73;;;9.27;;
67896;SDS011;54698;48.428;9.964;2022-08-30T04:47:39;19.02;;;10.30;;
67896;SDS011;54698;48.428;9.964;2022-08-30T04:50:08;15.82;;;10.75;;
67896;SDS011;54698;48.428;9.964;2022-08-30T04:52:37;15.65;;;10.25;;
67896;SDS011;54698;48.428;9.964;2022-08-30T04:55:03;19.27;;;10.13;;
67896;SDS011;54698;48.428;9.964;2022-08-30T04:57:32;20.27;;;10.15;;
67896;SDS011;54698;48.428;9.964;2022-08-30T04:59:57;21.15;;;11.13;;
67896;SDS011;54698;48.428;9.964;2022-08-30T05:02:23;17.02;;;11.48;;
67896;SDS011;54698;48.428;9.964;2022-08-30T05:04:49;16.60;;;10.82;;
67896;SDS011;54698;48.428;9.964;2022-08-30T05:07:16;17.77;;;10.63;;
67896;SDS011;54698;48.428;9.964;2022-08-30T05:09:42;16.02;;;8.70;;
67896;SDS011;54698;48.428;9.964;2022-08-30T05:12:08;13.98;;;8.43;;
67896;SDS011;54698;48.428;9.964;2022-08-30T05:14:33;19.77;;;11.45;;
67896;SDS011;54698;48.428;9.964;2022-08-30T05:16:59;16.27;;;9.30;;
67896;SDS011;54698;48.428;9.964;2022-08-30T05:19:25;18.40;;;10.18;;
67896;SDS011;54698;48.428;9.964;2022-08-30T05:21:51;14.95;;;8.98;;
67896;SDS011;54698;48.428;9.964;2022-08-30T05:24:18;19.52;;;10.40;;
67896;SDS011;54698;48.428;9.964;2022-08-30T05:26:44;15.13;;;8.95;;
67896;SDS011;54698;48.428;9.964;2022-08-30T05:29:09;15.70;;;9.00;;
67896;SDS011;54698;48.428;9.964;2022-08-30T05:31:35;16.55;;;9.40;;
67896;SDS011;54698;48.428;9.964;2022-08-30T05:34:02;14.75;;;9.82;;
67896;SDS011;54698;48.428;9.964;2022-08-30T05:36:29;13.90;;;8.68;;
67896;SDS011;54698;48.428;9.964;2022-08-30T05:38:58;17.85;;;7.53;;
67896;SDS011;54698;48.428;9.964;2022-08-30T05:41:25;17.80;;;9.65;;
67896;SDS011;54698;48.428;9.964;2022-08-30T05:43:51;15.82;;;8.55;;
67896;SDS011;54698;48.428;9.964;2022-08-30T05:46:17;12.55;;;7.60;;
67896;SDS011;54698;48.428;9.964;2022-08-30T05:48:43;15.35;;;9.45;;
67896;SDS011;54698;48.428;9.964;2022-08-30T05:51:10;15.38;;;9.52;;
67896;SDS011;54698;48.428;9.964;2022-08-30T05:53:39;14.32;;;8.65;;
67896;SDS011;54698;48.428;9.964;2022-08-30T05:56:06;12.52;;;8.38;;
67896;SDS011;54698;48.428;9.964;2022-08-30T05:58:37;17.40;;;9.20;;
67896;SDS011;54698;48.428;9.964;2022-08-30T06:01:03;17.25;;;8.80;;
67896;SDS011;54698;48.428;9.964;2022-08-30T06:03:30;12.55;;;8.05;;
67896;SDS011;54698;48.428;9.964;2022-08-30T06:05:56;13.88;;;9.15;;
67896;SDS011;54698;48.428;9.964;2022-08-30T06:08:22;17.02;;;7.85;;
67896;SDS011;54698;48.428;9.964;2022-08-30T06:10:48;14.43;;;8.52;;
67896;SDS011;54698;48.428;9.964;2022-08-30T06:13:14;16.70;;;8.20;;
67896;SDS011;54698;48.428;9.964;2022-08-30T06:15:42;14.88;;;8.32;;
67896;SDS011;54698;48.428;9.964;2022-08-30T06:18:08;14.25;;;7.93;;
67896;SDS011;54698;48.428;9.964;2022-08-30T06:20:37;14.95;;;8.85;;
67896;SDS011;54698;48.428;9.964;2022-08-30T06:23:05;13.02;;;8.48;;
67896;SDS011;54698;48.428;9.964;2022-08-30T06:25:30;12.98;;;7.88;;
67896;SDS011;54698;48.428;9.964;2022-08-30T06:27:59;13.02;;;7.82;;
67896;SDS011;54698;48.428;9.964;2022-08-30T06:30:26;15.20;;;8.25;;
67896;SDS011;54698;48.428;9.964;2022-08-30T06:32:53;14.40;;;7.32;;
67896;SDS011;54698;48.428;9.964;2022-08-30T06:35:18;12.88;;;7.38;;
67896;SDS011;54698;48.428;9.964;2022-08-30T06:37:44;12.60;;;7.72;;
67896;SDS011;54698;48.428;9.964;2022-08-30T06:40:11;16.67;;;7.75;;
67896;SDS011;54698;48.428;9.964;2022-08-30T06:42:39;14.85;;;8.20;;
67896;SDS011;54698;48.428;9.964;2022-08-30T06:45:06;13.32;;;7.60;;
67896;SDS011;54698;48.428;9.964;2022-08-30T06:47:32;12.60;;;7.00;;
67896;SDS011;54698;48.428;9.964;2022-08-30T06:49:59;11.88;;;6.30;;
67896;SDS011;54698;48.428;9.964;2022-08-30T06:52:25;11.05;;;6.80;;
67896;SDS011;54698;48.428;9.964;2022-08-30T06:54:52;14.60;;;6.97;;
67896;SDS011;54698;48.428;9.964;2022-08-30T06:57:18;13.50;;;6.82;;
67896;SDS011;54698;48.428;9.964;2022-08-30T06:59:44;14.45;;;7.82;;
67896;SDS011;54698;48.428;9.964;2022-08-30T07:02:10;13.65;;;7.55;;
67896;SDS011;54698;48.428;9.964;2022-08-30T07:04:36;12.45;;;6.47;;
67896;SDS011;54698;48.428;9.964;2022-08-30T07:07:03;16.85;;;7.28;;
67896;SDS011;54698;48.428;9.964;2022-08-30T07:09:29;12.55;;;7.40;;
67896;SDS011;54698;48.428;9.964;2022-08-30T07:11:55;13.52;;;7.50;;
67896;SDS011;54698;48.428;9.964;2022-08-30T07:14:25;14.02;;;7.80;;
67896;SDS011;54698;48.428;9.964;2022-08-30T07:16:51;12.32;;;6.93;;
67896;SDS011;54698;48.428;9.964;2022-08-30T07:19:17;14.73;;;7.72;;
67896;SDS011;54698;48.428;9.964;2022-08-30T07:21:43;14.25;;;7.68;;
67896;SDS011;54698;48.428;9.964;2022-08-30T07:24:10;13.05;;;7.57;;
67896;SDS011;54698;48.428;9.964;2022-08-30T07:26:38;14.77;;;8.45;;
67896;SDS011;54698;48.428;9.964;2022-08-30T07:29:06;11.20;;;7.75;;
67896;SDS011;54698;48.428;9.964;2022-08-30T07:31:34;14.40;;;7.70;;
67896;SDS011;54698;48.428;9.964;2022-08-30T07:34:00;16.73;;;9.20;;
67896;SDS011;54698;48.428;9.964;2022-08-30T07:36:27;12.68;;;7.60;;
67896;SDS011;54698;48.428;9.964;2022-08-30T07:38:53;14.25;;;8.25;;
67896;SDS011;54698;48.428;9.964;2022-08-30T07:41:21;14.48;;;9.23;;
67896;SDS011;54698;48.428;9.964;2022-08-30T07:43:50;13.85;;;8.25;;
67896;SDS011;54698;48.428;9.964;2022-08-30T07:46:16;13.50;;;7.85;;
67896;SDS011;54698;48.428;9.964;2022-08-30T07:48:43;16.65;;;7.63;;
67896;SDS011;54698;48.428;9.964;2022-08-30T07:51:10;14.60;;;9.02;;
67896;SDS011;54698;48.428;9.964;2022-08-30T07:53:38;11.30;;;7.70;;
67896;SDS011;54698;48.428;9.964;2022-08-30T07:56:04;13.70;;;7.90;;
67896;SDS011;54698;48.428;9.964;2022-08-30T07:58:31;13.32;;;7.55;;
67896;SDS011;54698;48.428;9.964;2022-08-30T08:00:57;12.00;;;6.53;;
67896;SDS011;54698;48.428;9.964;2022-08-30T08:03:23;13.13;;;7.22;;
67896;SDS011;54698;48.428;9.964;2022-08-30T08:05:50;13.10;;;6.85;;
67896;SDS011;54698;48.428;9.964;2022-08-30T08:08:15;13.65;;;7.00;;
67896;SDS011;54698;48.428;9.964;2022-08-30T08:10:41;13.90;;;8.25;;
67896;SDS011;54698;48.428;9.964;2022-08-30T08:13:07;13.45;;;6.78;;
67896;SDS011;54698;48.428;9.964;2022-08-30T08:15:34;13.02;;;8.38;;
67896;SDS011;54698;48.428;9.964;2022-08-30T08:18:00;12.80;;;7.88;;
67896;SDS011;54698;48.428;9.964;2022-08-30T08:20:26;12.38;;;7.57;;
67896;SDS011;54698;48.428;9.964;2022-08-30T08:22:53;14.55;;;8.35;;
67896;SDS011;54698;48.428;9.964;2022-08-30T08:25:18;12.15;;;6.95;;
67896;SDS011;54698;48.428;9.964;2022-08-30T08:27:45;12.15;;;6.63;;
67896;SDS011;54698;48.428;9.964;2022-08-30T08:30:11;9.25;;;6.22;;
67896;SDS011;54698;48.428;9.964;2022-08-30T08:32:39;12.02;;;6.45;;
67896;SDS011;54698;48.428;9.964;2022-08-30T08:35:05;18.55;;;8.27;;
67896;SDS011;54698;48.428;9.964;2022-08-30T08:37:31;11.05;;;6.82;;
67896;SDS011;54698;48.428;9.964;2022-08-30T08:39:57;9.68;;;6.00;;
67896;SDS011;54698;48.428;9.964;2022-08-30T08:42:24;10.13;;;5.78;;
67896;SDS011;54698;48.428;9.964;2022-08-30T08:45:03;12.77;;;6.75;;
67896;SDS011;54698;48.428;9.964;2022-08-30T08:47:34;11.65;;;7.03;;
67896;SDS011;54698;48.428;9.964;2022-08-30T08:50:05;13.13;;;6.35;;
67896;SDS011;54698;48.428;9.964;2022-08-30T08:52:35;12.82;;;6.88;;
67896;SDS011;54698;48.428;9.964;2022-08-30T08:55:14;14.07;;;7.50;;
67896;SDS011;54698;48.428;9.964;2022-08-30T08:57:42;9.75;;;5.15;;
67896;SDS011;54698;48.428;9.964;2022-08-30T09:00:11;10.57;;;5.70;;
67896;SDS011;54698;48.428;9.964;2022-08-30T09:02:40;10.50;;;6.45;;
67896;SDS011;54698;48.428;9.964;2022-08-30T09:05:10;10.13;;;5.70;;
67896;SDS011;54698;48.428;9.964;2022-08-30T09:07:40;9.60;;;5.88;;
67896;SDS011;54698;48.428;9.964;2022-08-30T09:10:11;10.00;;;6.03;;
67896;SDS011;54698;48.428;9.964;2022-08-30T09:12:36;11.40;;;5.72;;
67896;SDS011;54698;48.428;9.964;2022-08-30T09:15:04;10.48;;;5.97;;
67896;SDS011;54698;48.428;9.964;2022-08-30T09:17:48;9.32;;;5.68;;
67896;SDS011;54698;48.428;9.964;2022-08-30T09:20:25;9.57;;;4.97;;
67896;SDS011;54698;48.428;9.964;2022-08-30T09:22:54;12.68;;;5.25;;
67896;SDS011;54698;48.428;9.964;2022-08-30T09:25:22;10.35;;;6.18;;
67896;SDS011;54698;48.428;9.964;2022-08-30T09:27:51;9.05;;;5.00;;
67896;SDS011;54698;48.428;9.964;2022-08-30T09:30:20;9.25;;;4.78;;
67896;SDS011;54698;48.428;9.964;2022-08-30T09:32:53;11.45;;;5.10;;
67896;SDS011;54698;48.428;9.964;2022-08-30T09:35:23;8.27;;;4.25;;
67896;SDS011;54698;48.428;9.964;2022-08-30T09:38:02;8.38;;;4.55;;
67896;SDS011;54698;48.428;9.964;2022-08-30T09:40:33;10.13;;;5.85;;
67896;SDS011;54698;48.428;9.964;2022-08-30T09:43:03;10.80;;;5.85;;
67896;SDS011;54698;48.428;9.964;2022-08-30T09:45:33;12.35;;;6.63;;
67896;SDS011;54698;48.428;9.964;2022-08-30T09:50:56;8.02;;;4.40;;
67896;SDS011;54698;48.428;9.964;2022-08-30T09:53:39;8.95;;;3.72;;
67896;SDS011;54698;48.428;9.964;2022-08-30T09:56:15;8.30;;;5.00;;
67896;SDS011;54698;48.428;9.964;2022-08-30T09:58:52;7.28;;;4.00;;
67896;SDS011;54698;48.428;9.964;2022-08-30T10:01:28;8.13;;;4.07;;
67896;SDS011;54698;48.428;9.964;2022-08-30T10:04:01;8.90;;;4.33;;
67896;SDS011;54698;48.428;9.964;2022-08-30T10:06:38;10.40;;;3.78;;
67896;SDS011;54698;48.428;9.964;2022-08-30T10:09:12;8.50;;;4.72;;
67896;SDS011;54698;48.428;9.964;2022-08-30T10:11:48;8.32;;;4.40;;
67896;SDS011;54698;48.428;9.964;2022-08-30T10:14:42;8.05;;;4.82;;
67896;SDS011;54698;48.428;9.964;2022-08-30T10:17:18;7.93;;;4.10;;
67896;SDS011;54698;48.428;9.964;2022-08-30T10:22:37;7.63;;;4.78;;
67896;SDS011;54698;48.428;9.964;2022-08-30T10:25:09;8.30;;;4.68;;
67896;SDS011;54698;48.428;9.964;2022-08-30T10:30:09;9.32;;;4.65;;
67896;SDS011;54698;48.428;9.964;2022-08-30T10:32:38;7.88;;;4.20;;
67896;SDS011;54698;48.428;9.964;2022-08-30T10:35:14;8.75;;;4.63;;
67896;SDS011;54698;48.428;9.964;2022-08-30T10:40:13;7.70;;;4.07;;
67896;SDS011;54698;48.428;9.964;2022-08-30T10:42:45;7.93;;;4.28;;
67896;SDS011;54698;48.428;9.964;2022-08-30T10:45:12;8.52;;;4.07;;
67896;SDS011;54698;48.428;9.964;2022-08-30T10:47:41;9.52;;;4.43;;
67896;SDS011;54698;48.428;9.964;2022-08-30T10:50:16;8.27;;;4.10;;
67896;SDS011;54698;48.428;9.964;2022-08-30T10:52:49;7.60;;;4.20;;
67896;SDS011;54698;48.428;9.964;2022-08-30T10:55:24;6.68;;;3.50;;
67896;SDS011;54698;48.428;9.964;2022-08-30T10:57:53;7.32;;;4.13;;
67896;SDS011;54698;48.428;9.964;2022-08-30T11:00:25;9.20;;;4.45;;
67896;SDS011;54698;48.428;9.964;2022-08-30T11:03:06;8.65;;;4.22;;
67896;SDS011;54698;48.428;9.964;2022-08-30T11:06:09;8.93;;;4.50;;
67896;SDS011;54698;48.428;9.964;2022-08-30T11:08:48;10.25;;;4.53;;
67896;SDS011;54698;48.428;9.964;2022-08-30T11:11:55;8.55;;;3.80;;
67896;SDS011;54698;48.428;9.964;2022-08-30T11:14:41;7.72;;;3.60;;
67896;SDS011;54698;48.428;9.964;2022-08-30T11:17:17;7.13;;;3.15;;
67896;SDS011;54698;48.428;9.964;2022-08-30T11:19:51;8.20;;;3.65;;
67896;SDS011;54698;48.428;9.964;2022-08-30T11:22:23;7.40;;;3.35;;
67896;SDS011;54698;48.428;9.964;2022-08-30T11:25:00;7.93;;;3.45;;
67896;SDS011;54698;48.428;9.964;2022-08-30T11:27:41;5.50;;;3.10;;
67896;SDS011;54698;48.428;9.964;2022-08-30T11:33:26;8.45;;;3.65;;
67896;SDS011;54698;48.428;9.964;2022-08-30T11:35:55;9.20;;;3.65;;
67896;SDS011;54698;48.428;9.964;2022-08-30T11:41:31;7.95;;;3.42;;
67896;SDS011;54698;48.428;9.964;2022-08-30T11:44:11;7.00;;;3.47;;
67896;SDS011;54698;48.428;9.964;2022-08-30T11:46:54;7.03;;;3.38;;
67896;SDS011;54698;48.428;9.964;2022-08-30T11:52:26;6.63;;;3.35;;
67896;SDS011;54698;48.428;9.964;2022-08-30T11:55:11;7.13;;;3.65;;
67896;SDS011;54698;48.428;9.964;2022-08-30T11:58:16;6.97;;;3.33;;
67896;SDS011;54698;48.428;9.964;2022-08-30T12:01:11;7.20;;;2.80;;
67896;SDS011;54698;48.428;9.964;2022-08-30T12:03:41;7.70;;;3.20;;
67896;SDS011;54698;48.428;9.964;2022-08-30T12:06:08;7.88;;;3.45;;
67896;SDS011;54698;48.428;9.964;2022-08-30T12:08:46;6.85;;;3.10;;
67896;SDS011;54698;48.428;9.964;2022-08-30T12:14:45;6.70;;;3.40;;
67896;SDS011;54698;48.428;9.964;2022-08-30T12:17:21;6.00;;;3.25;;
67896;SDS011;54698;48.428;9.964;2022-08-30T12:19:54;6.22;;;3.35;;
67896;SDS011;54698;48.428;9.964;2022-08-30T12:22:21;7.82;;;3.58;;
67896;SDS011;54698;48.428;9.964;2022-08-30T12:24:48;9.02;;;4.20;;
67896;SDS011;54698;48.428;9.964;2022-08-30T12:27:23;7.10;;;3.45;;
67896;SDS011;54698;48.428;9.964;2022-08-30T12:29:52;6.65;;;3.45;;
67896;SDS011;54698;48.428;9.964;2022-08-30T12:32:19;8.10;;;3.85;;
67896;SDS011;54698;48.428;9.964;2022-08-30T12:34:50;8.90;;;3.47;;
67896;SDS011;54698;48.428;9.964;2022-08-30T12:37:20;8.43;;;3.22;;
67896;SDS011;54698;48.428;9.964;2022-08-30T12:39:58;8.23;;;3.65;;
67896;SDS011;54698;48.428;9.964;2022-08-30T12:42:28;7.95;;;3.70;;
67896;SDS011;54698;48.428;9.964;2022-08-30T12:44:56;8.23;;;2.80;;
67896;SDS011;54698;48.428;9.964;2022-08-30T12:47:27;7.30;;;3.42;;
67896;SDS011;54698;48.428;9.964;2022-08-30T12:49:57;7.90;;;4.30;;
67896;SDS011;54698;48.428;9.964;2022-08-30T12:52:27;8.32;;;3.08;;
67896;SDS011;54698;48.428;9.964;2022-08-30T12:55:04;7.40;;;3.13;;
67896;SDS011;54698;48.428;9.964;2022-08-30T12:57:40;6.40;;;3.33;;
67896;SDS011;54698;48.428;9.964;2022-08-30T13:00:08;8.68;;;2.90;;
67896;SDS011;54698;48.428;9.964;2022-08-30T13:02:45;6.40;;;3.40;;
67896;SDS011;54698;48.428;9.964;2022-08-30T13:05:27;6.85;;;2.72;;
67896;SDS011;54698;48.428;9.964;2022-08-30T13:08:12;6.80;;;3.33;;
67896;SDS011;54698;48.428;9.964;2022-08-30T13:10:48;6.55;;;3.38;;
67896;SDS011;54698;48.428;9.964;2022-08-30T13:13:27;8.32;;;2.92;;
67896;SDS011;54698;48.428;9.964;2022-08-30T13:16:05;6.22;;;3.22;;
67896;SDS011;54698;48.428;9.964;2022-08-30T13:18:33;5.85;;;3.03;;
67896;SDS011;54698;48.428;9.964;2022-08-30T13:21:18;6.45;;;3.40;;
67896;SDS011;54698;48.428;9.964;2022-08-30T13:23:49;7.10;;;3.10;;
67896;SDS011;54698;48.428;9.964;2022-08-30T13:26:16;8.80;;;3.28;;
67896;SDS011;54698;48.428;9.964;2022-08-30T13:28:46;7.95;;;3.65;;
67896;SDS011;54698;48.428;9.964;2022-08-30T13:31:14;10.00;;;3.45;;
67896;SDS011;54698;48.428;9.964;2022-08-30T13:33:41;6.13;;;3.42;;
67896;SDS011;54698;48.428;9.964;2022-08-30T13:36:06;6.47;;;3.28;;
67896;SDS011;54698;48.428;9.964;2022-08-30T13:38:32;6.13;;;3.25;;
67896;SDS011;54698;48.428;9.964;2022-08-30T13:40:58;7.43;;;3.40;;
67896;SDS011;54698;48.428;9.964;2022-08-30T13:43:24;6.45;;;3.35;;
67896;SDS011;54698;48.428;9.964;2022-08-30T13:45:51;12.75;;;3.35;;
67896;SDS011;54698;48.428;9.964;2022-08-30T13:48:17;5.45;;;2.83;;
67896;SDS011;54698;48.428;9.964;2022-08-30T13:50:43;6.82;;;2.92;;
67896;SDS011;54698;48.428;9.964;2022-08-30T13:53:09;7.22;;;3.28;;
67896;SDS011;54698;48.428;9.964;2022-08-30T13:55:35;5.70;;;2.70;;
67896;SDS011;54698;48.428;9.964;2022-08-30T13:58:04;7.60;;;3.42;;
67896;SDS011;54698;48.428;9.964;2022-08-30T14:00:29;6.43;;;3.60;;
67896;SDS011;54698;48.428;9.964;2022-08-30T14:02:58;6.82;;;3.05;;
67896;SDS011;54698;48.428;9.964;2022-08-30T14:05:24;6.53;;;2.75;;
67896;SDS011;54698;48.428;9.964;2022-08-30T14:07:53;6.38;;;2.83;;
67896;SDS011;54698;48.428;9.964;2022-08-30T14:10:19;6.35;;;3.15;;
67896;SDS011;54698;48.428;9.964;2022-08-30T14:12:48;7.32;;;3.80;;
67896;SDS011;54698;48.428;9.964;2022-08-30T14:15:14;10.85;;;3.30;;
67896;SDS011;54698;48.428;9.964;2022-08-30T14:17:40;6.80;;;2.72;;
67896;SDS011;54698;48.428;9.964;2022-08-30T14:20:08;6.18;;;3.08;;
67896;SDS011;54698;48.428;9.964;2022-08-30T14:22:34;8.88;;;2.80;;
67896;SDS011;54698;48.428;9.964;2022-08-30T14:25:00;8.65;;;3.00;;
67896;SDS011;54698;48.428;9.964;2022-08-30T14:27:26;5.80;;;2.60;;
67896;SDS011;54698;48.428;9.964;2022-08-30T14:29:52;7.03;;;3.20;;
67896;SDS011;54698;48.428;9.964;2022-08-30T14:32:18;6.68;;;2.67;;
67896;SDS011;54698;48.428;9.964;2022-08-30T14:34:44;6.15;;;2.80;;
67896;SDS011;54698;48.428;9.964;2022-08-30T14:37:11;10.45;;;2.72;;
67896;SDS011;54698;48.428;9.964;2022-08-30T14:39:38;6.07;;;2.80;;
67896;SDS011;54698;48.428;9.964;2022-08-30T14:42:07;5.95;;;3.03;;
67896;SDS011;54698;48.428;9.964;2022-08-30T14:44:34;7.35;;;2.90;;
67896;SDS011;54698;48.428;9.964;2022-08-30T14:47:00;5.15;;;2.70;;
67896;SDS011;54698;48.428;9.964;2022-08-30T14:49:26;7.28;;;2.47;;
67896;SDS011;54698;48.428;9.964;2022-08-30T14:51:52;5.95;;;2.72;;
67896;SDS011;54698;48.428;9.964;2022-08-30T14:54:20;7.10;;;2.92;;
67896;SDS011;54698;48.428;9.964;2022-08-30T14:56:48;6.60;;;2.90;;
67896;SDS011;54698;48.428;9.964;2022-08-30T14:59:14;6.57;;;2.88;;
67896;SDS011;54698;48.428;9.964;2022-08-30T15:01:40;5.50;;;2.47;;
67896;SDS011;54698;48.428;9.964;2022-08-30T15:04:07;6.30;;;2.83;;
67896;SDS011;54698;48.428;9.964;2022-08-30T15:06:34;6.95;;;2.60;;
67896;SDS011;54698;48.428;9.964;2022-08-30T15:09:00;5.47;;;2.33;;
67896;SDS011;54698;48.428;9.964;2022-08-30T15:11:29;6.95;;;2.35;;